Chicago, IL (60689)

4:25 PM CDT on August 23, 2016 (GMT -0500)
West Loop | | Change Station

Elev 571 ft 41.88 °N, 87.64 °W | Updated 34 seconds ago

Mostly Cloudy
Mostly Cloudy
83.1 °F
Feels Like 83 °F
N
9.4
Wind Variable Wind from WSW

Today
High -- | Low -- °F
--% Chance of Precip.
Yesterday
High -- | Low -- °F
Precip. -- in
Pressure 30.12 in
Visibility 10.0 miles
Clouds Scattered Clouds 4700 ft
Mostly Cloudy 25000 ft
Heat Index 83 °F
Dew Point 58 °F
Humidity 42%
Rainfall 0.00 in
Snow Depth Not available.
6:07 AM 7:37 PM
Waning Gibbous, 64% visible
METAR KMDW 232053Z 18012KT 140V210 10SM SCT047 BKN250 28/15 A3014 RMK AO2 SLP198 T02780150 56015
Pressure 30.12 in
Visibility 10.0 miles
Clouds Scattered Clouds 4700 ft
Mostly Cloudy 25000 ft
Heat Index 83 °F
Dew Point 58 °F
Humidity 42%
Rainfall 0.00 in
Snow Depth Not available.
6:07 AM 7:37 PM
Waning Gibbous, 64% visible
METAR KMDW 232053Z 18012KT 140V210 10SM SCT047 BKN250 28/15 A3014 RMK AO2 SLP198 T02780150 56015

10-Day Weather Forecast

Almanac

Astronomy

Aug. 23, 2016 Rise Set
Actual Time
Civil Twilight
Nautical Twilight
Astronomical Twilight
Moon
Length of Visible Light
Length of Day
Tomorrow will be .
, % of the Moon is Illuminated

Today's Extremes

State Highs State Lows

Community

WunderPhotos

Upload Photos

1,934,464 photos uploaded!

WunderBlog® & News

Nearby

Air Quality

  Air Quality AQ Index Pollutant
Not available.

Snow Depth

Station Depth Elevation

Earthquake Activity

City Distance Mag. Time & Date
Minimum magnitude displayed is 2.5.

Coastal Water Temperatures

Place Temperature

Stations

Nearby Weather Stations

Station Location Temp. Windchill Dew Point Humidity Wind Precip. Elev Updated Type
                   

Watches & Warnings

There are currently no watches in effect.